European Causeway — C6RG7 — position and weather

sailwx.info

Track history (hours):
 
Tides and Currents Weather Stations Pressure Air Temp Water Temp Dewpoint Dewpoint Depression Visibility Wind Speed Wind Dir Waves Ship Positions

European Causeway

Operator: P & O Irish Sea

Last reported at 2018-Dec-12 13:30 UTC. Time now 2018-Dec-12 13:51 UTC.
Position N 54°51' W 005°48'.

Length 145 m; draft 5.5 m.

Type: Passenger vessel. MMSI: 311027000.

Date/timePositionNaut miles runAvg speedWind from/ knotsBaromVisibWave heightAir tempDewpointWater temp
2018-Dec-12 13:30N 54°51' W 005°48'0 0.0
2018-Dec-12 13:00N 54°51' W 005°48'0 0.0
2018-Dec-12 12:31N 54°51' W 005°48'5 9.1
2018-Dec-12 12:00N 54°53' W 005°41'1020.3
2018-Dec-12 11:30N 54°58' W 005°25'1020.4
2018-Dec-12 11:00N 55°02' W 005°09'611.9
2018-Dec-12 10:30N 54°58' W 005°01'0 0.0
2018-Dec-12 10:00N 54°58' W 005°01'0 0.0
2018-Dec-12 09:30N 54°58' W 005°01'510.5
2018-Dec-12 09:01N 55°02' W 005°07'1019.3
2018-Dec-12 08:30N 54°57' W 005°22'1020.2
2018-Dec-12 08:00N 54°54' W 005°39'612.2
2018-Dec-12 07:30N 54°51' W 005°48'0 0.0
2018-Dec-12 07:00N 54°51' W 005°48'0 0.0
2018-Dec-12 06:30N 54°51' W 005°48'0 0.1
2018-Dec-12 06:00N 54°51' W 005°48'714.2
2018-Dec-12 05:30N 54°55' W 005°37'917.3
2018-Dec-12 05:00N 54°58' W 005°24'817.0
2018-Dec-12 04:30N 55°02' W 005°10'711.7
2018-Dec-12 03:57N 54°58' W 005°01'0 0.0
2018-Dec-12 03:27N 54°58' W 005°01'0 0.0
2018-Dec-12 02:54N 54°58' W 005°01'0 0.0
2018-Dec-12 02:21N 54°58' W 005°01'0 0.2
2018-Dec-12 02:00N 54°58' W 005°01'612.3
2018-Dec-12 01:30N 55°02' W 005°09'817.0
2018-Dec-12 01:00N 54°58' W 005°22'917.8
2018-Dec-12 00:31N 54°54' W 005°36'814.6
2018-Dec-11 23:59N 54°51' W 005°48'0 0.1
2018-Dec-11 23:23N 54°51' W 005°48'0 0.0
2018-Dec-11 22:59N 54°51' W 005°48'0 0.0
2018-Dec-11 22:26N 54°51' W 005°48'0 0.0
2018-Dec-11 22:00N 54°51' W 005°48'612.0
2018-Dec-11 21:30N 54°54' W 005°39'917.3
2018-Dec-11 21:00N 54°58' W 005°26'917.8
2018-Dec-11 20:30N 55°01' W 005°11'713.5
2018-Dec-11 20:00N 54°58' W 005°01'0 0.2
2018-Dec-11 19:30N 54°58' W 005°01'0 0.0
2018-Dec-11 19:00N 54°58' W 005°01'0 0.2
2018-Dec-11 18:30N 54°58' W 005°01'612.8
2018-Dec-11 18:01N 55°02' W 005°09'1019.3
2018-Dec-11 17:31N 54°57' W 005°24'1019.6
2018-Dec-11 17:01N 54°54' W 005°40'611.2
2018-Dec-11 16:30N 54°51' W 005°48'0 0.0
2018-Dec-11 15:59N 54°51' W 005°48'0 0.0
2018-Dec-11 15:30N 54°51' W 005°48'4 8.9
2018-Dec-11 15:00N 54°53' W 005°42'917.5
2018-Dec-11 14:30N 54°57' W 005°28'917.2
2018-Dec-11 14:00N 55°01' W 005°15'713.9
2018-Dec-11 13:30N 54°59' W 005°03'2 3.0
2018-Dec-11 12:58N 54°58' W 005°01'0 0.0
2018-Dec-11 12:28N 54°58' W 005°01'5 9.3
2018-Dec-11 11:54N 55°02' W 005°08'719.3
2018-Dec-11 11:31N 54°58' W 005°19'1020.5
2018-Dec-11 11:00N 54°54' W 005°36'815.6
2018-Dec-11 10:30N 54°51' W 005°48'0 0.1
2018-Dec-11 10:00N 54°51' W 005°48'0 0.0
2018-Dec-11 09:28N 54°51' W 005°48'4 9.1
2018-Dec-11 09:01N 54°53' W 005°42'917.7
2018-Dec-11 08:30N 54°57' W 005°28'918.3
2018-Dec-11 08:01N 55°01' W 005°14'713.5
2018-Dec-11 07:31N 54°59' W 005°03'1 2.7
2018-Dec-11 06:57N 54°58' W 005°01'0 0.0
2018-Dec-11 06:28N 54°58' W 005°01'0 0.2
2018-Dec-11 06:00N 54°58' W 005°01'611.3
2018-Dec-11 05:30N 55°02' W 005°08'917.5
2018-Dec-11 05:00N 54°58' W 005°21'1019.5
2018-Dec-11 04:30N 54°54' W 005°37'714.2
2018-Dec-11 04:00N 54°51' W 005°48'0 0.1
2018-Dec-11 03:30N 54°51' W 005°48'0 0.0
2018-Dec-11 03:00N 54°51' W 005°48'0 0.0
2018-Dec-11 02:30N 54°51' W 005°48'0 0.0
2018-Dec-11 02:00N 54°51' W 005°48'612.8
2018-Dec-11 01:30N 54°54' W 005°38'917.9
2018-Dec-11 01:00N 54°58' W 005°24'918.3
2018-Dec-11 00:30N 55°01' W 005°10'612.4
2018-Dec-11 00:00N 54°58' W 005°01'0 0.0
2018-Dec-10 23:30N 54°58' W 005°01'0 0.0
2018-Dec-10 23:00N 54°58' W 005°01'0 0.0
2018-Dec-10 22:30N 54°58' W 005°01'5 8.0
2018-Dec-10 21:49N 55°02' W 005°08'618.6
2018-Dec-10 21:30N 54°59' W 005°17'1020.0
2018-Dec-10 21:00N 54°55' W 005°33'918.1
2018-Dec-10 20:29N 54°51' W 005°48'0 0.3
2018-Dec-10 20:00N 54°51' W 005°48'0 0.0
2018-Dec-10 19:27N 54°51' W 005°48'0 0.0
2018-Dec-10 18:57N 54°51' W 005°48'0 0.0
2018-Dec-10 18:30N 54°51' W 005°48'4 7.7
2018-Dec-10 18:01N 54°53' W 005°43'918.1
2018-Dec-10 17:31N 54°57' W 005°29'917.9
2018-Dec-10 17:01N 55°01' W 005°14'714.4
2018-Dec-10 16:30N 54°59' W 005°02'1 2.1
2018-Dec-10 16:00N 54°58' W 005°01'0 0.0
2018-Dec-10 15:30N 54°58' W 005°01'5 9.5
2018-Dec-10 14:58N 55°02' W 005°07'920.6
2018-Dec-10 14:30N 54°58' W 005°22'1020.0
2018-Dec-10 14:00N 54°54' W 005°38'713.0
2018-Dec-10 13:30N 54°51' W 005°48'0 0.0
2018-Dec-10 13:00N 54°51' W 005°48'0 0.0
2018-Dec-10 12:30N 54°51' W 005°48'4 7.4
2018-Dec-10 12:00N 54°53' W 005°43'918.0
2018-Dec-10 11:31N 54°57' W 005°29'918.0
2018-Dec-10 11:01N 55°01' W 005°14'714.1
2018-Dec-10 10:31N 54°59' W 005°03'1 2.9
2018-Dec-10 09:59N 54°58' W 005°01'0 0.0
2018-Dec-10 09:31N 54°58' W 005°01'510.5
2018-Dec-10 08:59N 55°02' W 005°08'919.0
2018-Dec-10 08:31N 54°57' W 005°22'1020.4
2018-Dec-10 08:01N 54°53' W 005°38'612.2
2018-Dec-10 07:30N 54°51' W 005°48'0 0.0
2018-Dec-10 07:00N 54°51' W 005°48'0 0.0
2018-Dec-10 06:30N 54°51' W 005°48'0 0.0
2018-Dec-10 06:00N 54°51' W 005°48'611.2
2018-Dec-10 05:30N 54°54' W 005°40'918.3
2018-Dec-10 05:00N 54°58' W 005°26'918.0
2018-Dec-10 04:30N 55°01' W 005°11'612.2
2018-Dec-10 04:00N 54°58' W 005°02'1 1.6
2018-Dec-10 03:30N 54°58' W 005°01'0 0.0
2018-Dec-10 02:29N 54°58' W 005°01'0 0.0
2018-Dec-10 02:00N 54°58' W 005°01'6 8.8
2018-Dec-10 01:22N 55°02' W 005°08'718.7
2018-Dec-10 01:00N 54°59' W 005°19'918.4
2018-Dec-10 00:30N 54°55' W 005°33'917.9
2018-Dec-10 00:00N 54°51' W 005°48'1 1.2
2018-Dec-09 23:30N 54°51' W 005°48'0 0.0
2018-Dec-09 23:00N 54°51' W 005°48'0 0.0
2018-Dec-09 22:30N 54°51' W 005°48'0 0.0
2018-Dec-09 22:00N 54°51' W 005°48'4 8.1
2018-Dec-09 21:30N 54°53' W 005°42'816.7
2018-Dec-09 21:00N 54°57' W 005°29'816.3
2018-Dec-09 20:31N 54°60' W 005°16'713.7
2018-Dec-09 19:59N 54°59' W 005°03'2 3.3
2018-Dec-09 19:19N 54°58' W 005°01'0 0.0
2018-Dec-09 18:58N 54°58' W 005°01'0 0.0
2018-Dec-09 18:31N 54°58' W 005°01'5 9.9
2018-Dec-09 17:58N 55°02' W 005°07'817.3
2018-Dec-09 17:30N 54°58' W 005°20'917.8
2018-Dec-09 17:00N 54°55' W 005°34'816.9
2018-Dec-09 16:30N 54°51' W 005°48'0 0.6
2018-Dec-09 15:59N 54°51' W 005°48'0 0.0
2018-Dec-09 15:27N 54°51' W 005°48'4 9.5
2018-Dec-09 15:00N 54°53' W 005°42'917.7
2018-Dec-09 14:30N 54°57' W 005°28'917.3
2018-Dec-09 14:00N 55°01' W 005°14'713.8
2018-Dec-09 13:30N 54°59' W 005°03'2 3.0
2018-Dec-09 12:59N 54°58' W 005°01'0 0.0
2018-Dec-09 12:29N 54°58' W 005°01'0 0.0
2018-Dec-09 11:47N 54°58' W 005°01'0 0.0
2018-Dec-09 11:29N 54°58' W 005°01'0 0.0
2018-Dec-09 10:59N 54°58' W 005°01'0 0.0
2018-Dec-09 10:30N 54°58' W 005°01'0 0.0
2018-Dec-09 09:59N 54°58' W 005°01'0 0.0
2018-Dec-09 09:29N 54°58' W 005°01'510.4
2018-Dec-09 09:00N 55°02' W 005°07'816.5
2018-Dec-09 08:30N 54°58' W 005°20'917.9
2018-Dec-09 08:00N 54°54' W 005°34'917.2
2018-Dec-09 07:30N 54°51' W 005°48'0 0.4
2018-Dec-09 06:57N 54°51' W 005°48'0 0.0
2018-Dec-09 06:30N 54°51' W 005°48'0 0.0
2018-Dec-09 06:00N 54°51' W 005°48'0 0.0
2018-Dec-09 05:30N 54°51' W 005°48'0 0.0
2018-Dec-09 05:00N 54°51' W 005°48'0 0.0
2018-Dec-09 04:30N 54°51' W 005°48'0 0.0
2018-Dec-09 04:00N 54°51' W 005°48'0 0.0
2018-Dec-09 03:30N 54°51' W 005°48'0 0.0
2018-Dec-09 03:00N 54°51' W 005°48'0 0.0
2018-Dec-09 02:30N 54°51' W 005°48'0 0.0
2018-Dec-09 02:00N 54°51' W 005°48'0 0.0
2018-Dec-09 01:30N 54°51' W 005°48'0 0.0
2018-Dec-09 01:00N 54°51' W 005°48'0 0.0
2018-Dec-09 00:30N 54°51' W 005°48'0 0.0
2018-Dec-08 23:57N 54°51' W 005°48'0 0.0
2018-Dec-08 23:30N 54°51' W 005°48'0 0.0
2018-Dec-08 23:00N 54°51' W 005°48'0 0.0
2018-Dec-08 22:30N 54°51' W 005°48'0 0.0
2018-Dec-08 22:00N 54°51' W 005°48'510.1
2018-Dec-08 21:31N 54°54' W 005°41'917.9
2018-Dec-08 21:00N 54°59' W 005°27'917.1
2018-Dec-08 20:30N 55°01' W 005°13'713.4
2018-Dec-08 20:00N 54°59' W 005°02'1 2.1
2018-Dec-08 19:29N 54°58' W 005°01'0 0.0
2018-Dec-08 18:59N 54°58' W 005°01'0 0.0
2018-Dec-08 18:29N 54°58' W 005°01'611.2
2018-Dec-08 17:57N 55°02' W 005°09'919.9
2018-Dec-08 17:31N 54°57' W 005°23'1020.7
2018-Dec-08 17:00N 54°54' W 005°39'611.1
2018-Dec-08 16:30N 54°51' W 005°48'0 0.0
2018-Dec-08 15:57N 54°51' W 005°48'0 0.0
2018-Dec-08 15:30N 54°51' W 005°48'4 7.6
2018-Dec-08 15:00N 54°53' W 005°43'917.3
2018-Dec-08 14:30N 54°57' W 005°29'816.9
2018-Dec-08 14:01N 55°00' W 005°16'714.1
2018-Dec-08 13:30N 54°59' W 005°03'2 3.8
2018-Dec-08 12:55N 54°58' W 005°01'0 0.0
2018-Dec-08 12:29N 54°58' W 005°01'6 9.9
2018-Dec-08 11:55N 55°02' W 005°08'818.7
2018-Dec-08 11:30N 54°58' W 005°20'918.6
2018-Dec-08 11:00N 54°55' W 005°35'816.6
2018-Dec-08 10:30N 54°51' W 005°48'0 0.2
2018-Dec-08 09:58N 54°51' W 005°48'0 0.0
2018-Dec-08 09:30N 54°51' W 005°48'713.9
2018-Dec-08 09:01N 54°54' W 005°38'816.8
2018-Dec-08 08:31N 54°58' W 005°24'918.1
2018-Dec-08 08:00N 55°02' W 005°10'612.3
2018-Dec-08 07:29N 54°58' W 005°01'0 0.0
2018-Dec-08 07:00N 54°58' W 005°01'0 0.0
2018-Dec-08 06:30N 54°58' W 005°01'0 0.1
2018-Dec-08 05:59N 54°58' W 005°01'510.6
2018-Dec-08 05:30N 55°02' W 005°07'917.0
2018-Dec-08 05:00N 54°58' W 005°20'917.7
2018-Dec-08 04:30N 54°55' W 005°34'816.9
2018-Dec-08 04:00N 54°51' W 005°48'0 0.5
2018-Dec-08 03:29N 54°51' W 005°48'0 0.0
2018-Dec-08 02:59N 54°51' W 005°48'0 0.0
2018-Dec-08 02:27N 54°51' W 005°48'0 0.1
2018-Dec-08 02:00N 54°51' W 005°48'714.6
2018-Dec-08 01:30N 54°55' W 005°37'918.8
2018-Dec-08 01:00N 54°58' W 005°22'917.5
2018-Dec-08 00:30N 55°02' W 005°08'611.3
2018-Dec-08 00:00N 54°58' W 005°01'0 0.0
2018-Dec-07 23:31N 54°58' W 005°01'0 0.0
2018-Dec-07 23:00N 54°58' W 005°01'0 0.0
2018-Dec-07 22:30N 54°58' W 005°01'5 8.3
2018-Dec-07 21:53N 55°02' W 005°07'616.8
2018-Dec-07 21:30N 54°59' W 005°17'917.7
2018-Dec-07 21:00N 54°55' W 005°31'1018.9
2018-Dec-07 20:30N 54°52' W 005°46'2 2.9
2018-Dec-07 19:59N 54°51' W 005°48'0 0.0
2018-Dec-07 19:29N 54°51' W 005°48'0 0.0
2018-Dec-07 18:56N 54°51' W 005°48'0 0.0
2018-Dec-07 18:30N 54°51' W 005°48'5 9.9
2018-Dec-07 18:00N 54°54' W 005°41'919.0
2018-Dec-07 17:31N 54°58' W 005°26'1018.5
2018-Dec-07 16:58N 55°02' W 005°10'613.3
2018-Dec-07 16:30N 54°58' W 005°01'0 0.4
2018-Dec-07 15:57N 54°58' W 005°01'0 0.0
2018-Dec-07 15:30N 54°58' W 005°01'6 9.0
2018-Dec-07 14:53N 55°02' W 005°08'820.9
2018-Dec-07 14:31N 54°58' W 005°20'1020.5
2018-Dec-07 14:00N 54°54' W 005°37'713.1
2018-Dec-07 13:27N 54°51' W 005°48'0 0.0
2018-Dec-07 13:00N 54°51' W 005°48'0 0.0
2018-Dec-07 12:30N 54°51' W 005°48'715.0
2018-Dec-07 12:00N 54°55' W 005°37'1019.2
2018-Dec-07 11:30N 54°59' W 005°22'1115.7
2018-Dec-07 10:49N 54°59' W 005°03'2 7.3
2018-Dec-07 10:30N 54°58' W 005°01'0 0.0
2018-Dec-07 09:59N 54°58' W 005°01'0 0.0
2018-Dec-07 09:26N 54°58' W 005°01'610.5
2018-Dec-07 08:53N 55°02' W 005°09'617.0
2018-Dec-07 08:30N 54°58' W 005°18'918.0
2018-Dec-07 08:01N 54°55' W 005°32'918.5
2018-Dec-07 07:30N 54°51' W 005°48'1 1.2
2018-Dec-07 06:58N 54°51' W 005°48'0 0.0
2018-Dec-07 06:25N 54°51' W 005°48'0 0.1
2018-Dec-07 06:01N 54°51' W 005°48'713.6
2018-Dec-07 05:31N 54°54' W 005°38'918.8
2018-Dec-07 05:00N 54°59' W 005°23'918.5
2018-Dec-07 04:31N 55°02' W 005°08'611.0
2018-Dec-07 04:00N 54°58' W 005°01'0 0.0
2018-Dec-07 03:27N 54°58' W 005°01'0 0.0
2018-Dec-07 02:30N 54°58' W 005°01'0 0.0
2018-Dec-07 02:01N 54°58' W 005°01'5 9.3
2018-Dec-07 01:26N 55°02' W 005°07'920.9
2018-Dec-07 01:00N 54°58' W 005°21'1019.7
2018-Dec-07 00:30N 54°54' W 005°37'714.0
2018-Dec-07 00:01N 54°51' W 005°48'0 0.1
2018-Dec-06 23:30N 54°51' W 005°48'0 0.0
2018-Dec-06 23:00N 54°51' W 005°48'0 0.0
2018-Dec-06 22:30N 54°51' W 005°48'0 0.0
2018-Dec-06 22:00N 54°51' W 005°48'612.3
2018-Dec-06 21:30N 54°54' W 005°39'917.5
2018-Dec-06 21:00N 54°58' W 005°25'917.6
2018-Dec-06 20:30N 55°01' W 005°11'713.8
2018-Dec-06 20:00N 54°58' W 005°01'0 0.0
2018-Dec-06 19:26N 54°58' W 005°01'0 0.0
2018-Dec-06 18:56N 54°58' W 005°01'0 0.0
2018-Dec-06 18:30N 54°58' W 005°01'510.2
2018-Dec-06 18:00N 55°02' W 005°07'917.7
2018-Dec-06 17:30N 54°58' W 005°21'1019.1
2018-Dec-06 17:00N 54°54' W 005°36'815.0
2018-Dec-06 16:30N 54°51' W 005°48'0 0.1
2018-Dec-06 15:52N 54°51' W 005°48'0 0.0
2018-Dec-06 15:30N 54°51' W 005°48'611.6
2018-Dec-06 15:00N 54°54' W 005°39'918.3
2018-Dec-06 14:31N 54°58' W 005°25'917.6
2018-Dec-06 14:00N 55°01' W 005°11'713.5
2018-Dec-06 13:30N 54°58' W 005°01'0 0.0
2018-Dec-06 12:55N 54°58' W 005°01'0 0.0
2018-Dec-06 12:31N 54°58' W 005°01'612.9
2018-Dec-06 12:01N 55°01' W 005°10'1122.5
2018-Dec-06 11:30N 54°56' W 005°28'1121.7
2018-Dec-06 11:01N 54°52' W 005°45'2 4.0
2018-Dec-06 10:27N 54°51' W 005°48'0 0.0
2018-Dec-06 10:00N 54°51' W 005°48'5 9.6
2018-Dec-06 09:30N 54°54' W 005°41'1021.1
2018-Dec-06 09:01N 54°58' W 005°25'1216.6
2018-Dec-06 08:16N 54°59' W 005°03'2 7.1
2018-Dec-06 07:59N 54°58' W 005°01'0 0.0
2018-Dec-06 07:26N 54°58' W 005°01'0 0.0
2018-Dec-06 06:59N 54°58' W 005°01'0 0.0
2018-Dec-06 06:28N 54°58' W 005°01'0 0.3
2018-Dec-06 06:00N 54°58' W 005°01'612.3
2018-Dec-06 05:30N 55°02' W 005°09'1019.8
2018-Dec-06 05:00N 54°57' W 005°25'1020.3
2018-Dec-06 04:30N 54°53' W 005°41'4 8.9
2018-Dec-06 04:00N 54°51' W 005°48'0 0.0
2018-Dec-06 03:00N 54°51' W 005°48'0 0.0
2018-Dec-06 02:30N 54°51' W 005°48'0 0.0
2018-Dec-06 02:00N 54°51' W 005°48'611.0
2018-Dec-06 01:30N 54°54' W 005°40'1020.6
2018-Dec-06 01:00N 54°58' W 005°24'1019.6
2018-Dec-06 00:30N 55°02' W 005°07'611.2
2018-Dec-06 00:00N 54°58' W 005°01'0 0.0
2018-Dec-05 23:31N 54°58' W 005°01'0 0.0
2018-Dec-05 23:00N 54°58' W 005°01'0 0.0
2018-Dec-05 22:30N 54°58' W 005°01'5 7.7
2018-Dec-05 21:51N 55°02' W 005°07'618.2
2018-Dec-05 21:31N 54°59' W 005°16'918.6
2018-Dec-05 21:00N 54°55' W 005°31'918.7
2018-Dec-05 20:30N 54°52' W 005°46'2 2.7
2018-Dec-05 19:56N 54°51' W 005°48'0 0.0
2018-Dec-05 19:29N 54°51' W 005°48'0 0.0
2018-Dec-05 18:59N 54°51' W 005°48'0 0.0
2018-Dec-05 18:30N 54°51' W 005°48'816.4
2018-Dec-05 18:01N 54°55' W 005°35'1122.0
2018-Dec-05 17:30N 54°60' W 005°18'915.7
2018-Dec-05 16:57N 54°59' W 005°03'2 3.6
2018-Dec-05 16:26N 54°58' W 005°01'0 0.0
2018-Dec-05 15:53N 54°58' W 005°01'0 0.0
2018-Dec-05 15:30N 54°58' W 005°01'5 9.3
2018-Dec-05 14:58N 55°02' W 005°06'919.5
2018-Dec-05 14:30N 54°58' W 005°21'1020.0
2018-Dec-05 14:00N 54°54' W 005°37'714.2
2018-Dec-05 13:31N 54°51' W 005°48'0 0.1
2018-Dec-05 12:58N 54°51' W 005°48'0 0.0
2018-Dec-05 12:31N 54°51' W 005°48'4 8.2
2018-Dec-05 12:01N 54°53' W 005°42'1020.5
2018-Dec-05 11:30N 54°58' W 005°26'1019.7
2018-Dec-05 11:01N 55°02' W 005°10'712.9
2018-Dec-05 10:29N 54°58' W 005°01'0 0.0
2018-Dec-05 09:58N 54°58' W 005°01'0 0.0
2018-Dec-05 09:31N 54°58' W 005°01'610.0
2018-Dec-05 08:55N 55°01' W 005°09'717.2
2018-Dec-05 08:30N 54°57' W 005°19'917.7
2018-Dec-05 08:00N 54°55' W 005°34'917.0
2018-Dec-05 07:31N 54°52' W 005°47'1 1.6
2018-Dec-05 06:58N 54°51' W 005°48'0 0.0
2018-Dec-05 06:28N 54°51' W 005°48'0 0.0
2018-Dec-05 06:00N 54°51' W 005°48'4 8.7
2018-Dec-05 05:30N 54°53' W 005°42'1019.9
2018-Dec-05 05:01N 54°58' W 005°26'1020.4
2018-Dec-05 04:30N 55°02' W 005°09'612.4
2018-Dec-05 04:00N 54°58' W 005°01'0 0.0
2018-Dec-05 03:27N 54°58' W 005°01'0 0.0
2018-Dec-05 03:00N 54°58' W 005°01'0 0.0
2018-Dec-05 02:24N 54°58' W 005°01'0 0.1
2018-Dec-05 02:00N 54°58' W 005°01'611.5
2018-Dec-05 01:30N 55°02' W 005°09'918.5
2018-Dec-05 01:01N 54°57' W 005°23'917.6
2018-Dec-05 00:31N 54°54' W 005°37'714.0
2018-Dec-05 00:00N 54°51' W 005°48'0 0.1
2018-Dec-04 23:30N 54°51' W 005°48'0 0.0
2018-Dec-04 23:00N 54°51' W 005°48'0 0.0
2018-Dec-04 22:30N 54°51' W 005°48'0 0.0
2018-Dec-04 22:00N 54°51' W 005°48'510.9
2018-Dec-04 21:30N 54°54' W 005°40'918.1
2018-Dec-04 21:00N 54°59' W 005°27'917.5
2018-Dec-04 20:30N 55°01' W 005°12'714.5
2018-Dec-04 20:00N 54°58' W 005°01'0 0.6
2018-Dec-04 19:29N 54°58' W 005°01'0 0.0
2018-Dec-04 18:59N 54°58' W 005°01'0 0.0
2018-Dec-04 18:29N 54°58' W 005°01'5 9.3
2018-Dec-04 17:57N 55°02' W 005°07'716.7
2018-Dec-04 17:31N 54°59' W 005°19'1020.2
2018-Dec-04 17:01N 54°55' W 005°35'816.7
2018-Dec-04 16:30N 54°51' W 005°48'0 0.2
2018-Dec-04 15:59N 54°51' W 005°48'0 0.0
2018-Dec-04 15:30N 54°51' W 005°48'4 7.9
2018-Dec-04 15:00N 54°53' W 005°42'918.0
2018-Dec-04 14:31N 54°57' W 005°28'918.0
2018-Dec-04 14:00N 55°01' W 005°14'714.3
2018-Dec-04 13:30N 54°59' W 005°03'2 2.5
2018-Dec-04 12:53N 54°58' W 005°01'0 0.0
2018-Dec-04 12:30N 54°58' W 005°01'6 9.9
2018-Dec-04 11:54N 55°02' W 005°09'819.7
2018-Dec-04 11:30N 54°58' W 005°21'918.9
2018-Dec-04 11:00N 54°54' W 005°36'815.3
2018-Dec-04 10:30N 54°51' W 005°48'0 0.2
2018-Dec-04 10:00N 54°51' W 005°48'0 0.0
2018-Dec-04 09:28N 54°51' W 005°48'4 8.7
2018-Dec-04 09:00N 54°53' W 005°42'1020.0
2018-Dec-04 08:30N 54°58' W 005°27'1019.3
2018-Dec-04 08:00N 55°01' W 005°11'714.2
2018-Dec-04 07:30N 54°58' W 005°01'0 0.0
2018-Dec-04 06:59N 54°58' W 005°01'0 0.0
2018-Dec-04 06:26N 54°58' W 005°01'0 0.0
2018-Dec-04 06:00N 54°58' W 005°01'611.0
2018-Dec-04 05:30N 55°01' W 005°08'816.8
2018-Dec-04 05:01N 54°58' W 005°21'918.3
2018-Dec-04 04:30N 54°55' W 005°36'815.7
2018-Dec-04 04:00N 54°51' W 005°48'0 0.2
2018-Dec-04 03:30N 54°51' W 005°48'0 0.0
2018-Dec-04 03:01N 54°51' W 005°48'0 0.0
2018-Dec-04 02:30N 54°51' W 005°48'0 0.0
2018-Dec-04 02:00N 54°51' W 005°48'510.3
2018-Dec-04 01:31N 54°54' W 005°41'917.9
2018-Dec-04 01:00N 54°58' W 005°27'917.8
2018-Dec-04 00:31N 55°01' W 005°13'714.7
2018-Dec-04 00:00N 54°58' W 005°01'0 0.1
2018-Dec-03 23:29N 54°58' W 005°01'0 0.0
2018-Dec-03 22:59N 54°58' W 005°01'0 0.0
2018-Dec-03 22:29N 54°58' W 005°01'6 8.1
2018-Dec-03 21:48N 55°02' W 005°08'620.0
2018-Dec-03 21:30N 54°59' W 005°17'1020.0
2018-Dec-03 21:00N 54°54' W 005°33'918.3
2018-Dec-03 20:30N 54°51' W 005°48'1 1.0
2018-Dec-03 19:58N 54°51' W 005°48'0 0.0
2018-Dec-03 19:28N 54°51' W 005°48'0 0.0
2018-Dec-03 18:55N 54°51' W 005°48'0 0.0
2018-Dec-03 18:30N 54°51' W 005°48'510.2
2018-Dec-03 18:01N 54°54' W 005°41'1019.9
2018-Dec-03 17:30N 54°59' W 005°26'1316.6
2018-Dec-03 16:44N 54°59' W 005°03'2 8.5
2018-Dec-03 16:30N 54°58' W 005°01'0 0.0
2018-Dec-03 16:01N 54°58' W 005°01'0 0.2
2018-Dec-03 15:30N 54°58' W 005°01'612.9
2018-Dec-03 15:01N 55°01' W 005°10'1121.3
2018-Dec-03 14:30N 54°56' W 005°27'1121.9
2018-Dec-03 14:00N 54°52' W 005°44'3 5.1
2018-Dec-03 13:30N 54°51' W 005°48'0 0.0
2018-Dec-03 13:00N 54°51' W 005°48'0 0.0
2018-Dec-03 12:30N 54°51' W 005°48'3 6.7
2018-Dec-03 12:00N 54°53' W 005°43'917.7
2018-Dec-03 11:30N 54°57' W 005°29'917.8
2018-Dec-03 11:00N 55°00' W 005°15'714.2
2018-Dec-03 10:30N 54°59' W 005°03'2 3.6
2018-Dec-03 10:00N 54°58' W 005°01'0 0.0
2018-Dec-03 09:31N 54°58' W 005°01'5 9.7
2018-Dec-03 09:00N 55°02' W 005°06'917.7
2018-Dec-03 08:31N 54°58' W 005°20'917.7
2018-Dec-03 08:00N 54°55' W 005°34'816.8
2018-Dec-03 07:30N 54°51' W 005°48'0 0.3
2018-Dec-03 07:00N 54°51' W 005°48'0 0.0
2018-Dec-03 06:30N 54°51' W 005°48'0 0.0
2018-Dec-03 06:00N 54°51' W 005°48'4 8.5
2018-Dec-03 05:30N 54°53' W 005°42'917.0
2018-Dec-03 05:00N 54°57' W 005°29'917.3
2018-Dec-03 04:30N 55°00' W 005°15'714.0
2018-Dec-03 04:00N 54°59' W 005°03'2 3.0
2018-Dec-03 03:28N 54°58' W 005°01'0 0.0
2018-Dec-03 02:52N 54°58' W 005°01'0 0.0
2018-Dec-03 02:25N 54°58' W 005°01'0 0.2
2018-Dec-03 02:00N 54°58' W 005°01'612.1
2018-Dec-03 01:30N 55°01' W 005°10'918.5
2018-Dec-03 01:01N 54°57' W 005°24'918.8
2018-Dec-03 00:30N 54°54' W 005°39'611.6
2018-Dec-03 00:00N 54°51' W 005°48'0 0.0
2018-Dec-02 23:30N 54°51' W 005°48'0 0.0
2018-Dec-02 23:00N 54°51' W 005°48'0 0.0
2018-Dec-02 22:30N 54°51' W 005°48'0 0.0
2018-Dec-02 22:00N 54°51' W 005°48'4 8.4
2018-Dec-02 21:30N 54°53' W 005°42'917.5
2018-Dec-02 21:00N 54°57' W 005°28'816.9
2018-Dec-02 20:30N 55°01' W 005°15'714.4
2018-Dec-02 20:00N 54°59' W 005°03'1 2.5
2018-Dec-02 19:26N 54°58' W 005°01'0 0.0
2018-Dec-02 18:56N 54°58' W 005°01'0 0.0
2018-Dec-02 18:31N 54°58' W 005°01'510.0
2018-Dec-02 18:00N 55°02' W 005°07'1019.3
2018-Dec-02 17:30N 54°57' W 005°22'1020.5
2018-Dec-02 17:00N 54°54' W 005°39'612.2
2018-Dec-02 16:30N 54°51' W 005°48'0 0.0
2018-Dec-02 15:57N 54°51' W 005°48'0 0.0
2018-Dec-02 15:30N 54°51' W 005°48'4 8.0
2018-Dec-02 15:00N 54°53' W 005°42'815.3
2018-Dec-02 14:30N 54°57' W 005°31'917.3
2018-Dec-02 14:00N 55°00' W 005°17'  
Track history (hours):
 
Tides and Currents Weather Stations Pressure Air Temp Water Temp Dewpoint Dewpoint Depression Visibility Wind Speed Wind Dir Waves Ship Positions

European Causeway

Operator: P & O Irish Sea

Last reported at 2018-Dec-12 13:30 UTC. Time now 2018-Dec-12 13:51 UTC.
Position N 54°51' W 005°48'.

Length 145 m; draft 5.5 m.

Type: Passenger vessel. MMSI: 311027000.

Date/timePositionNaut miles runAvg speedWind from/ knotsBaromVisibWave heightAir tempDewpointWater temp
2018-Dec-12 13:30N 54°51' W 005°48'0 0.0
2018-Dec-12 13:00N 54°51' W 005°48'0 0.0
2018-Dec-12 12:31N 54°51' W 005°48'5 9.1
2018-Dec-12 12:00N 54°53' W 005°41'1020.3
2018-Dec-12 11:30N 54°58' W 005°25'1020.4
2018-Dec-12 11:00N 55°02' W 005°09'611.9
2018-Dec-12 10:30N 54°58' W 005°01'0 0.0
2018-Dec-12 10:00N 54°58' W 005°01'0 0.0
2018-Dec-12 09:30N 54°58' W 005°01'510.5
2018-Dec-12 09:01N 55°02' W 005°07'1019.3
2018-Dec-12 08:30N 54°57' W 005°22'1020.2
2018-Dec-12 08:00N 54°54' W 005°39'612.2
2018-Dec-12 07:30N 54°51' W 005°48'0 0.0
2018-Dec-12 07:00N 54°51' W 005°48'0 0.0
2018-Dec-12 06:30N 54°51' W 005°48'0 0.1
2018-Dec-12 06:00N 54°51' W 005°48'714.2
2018-Dec-12 05:30N 54°55' W 005°37'917.3
2018-Dec-12 05:00N 54°58' W 005°24'817.0
2018-Dec-12 04:30N 55°02' W 005°10'711.7
2018-Dec-12 03:57N 54°58' W 005°01'0 0.0
2018-Dec-12 03:27N 54°58' W 005°01'0 0.0
2018-Dec-12 02:54N 54°58' W 005°01'0 0.0
2018-Dec-12 02:21N 54°58' W 005°01'0 0.2
2018-Dec-12 02:00N 54°58' W 005°01'612.3
2018-Dec-12 01:30N 55°02' W 005°09'817.0
2018-Dec-12 01:00N 54°58' W 005°22'917.8
2018-Dec-12 00:31N 54°54' W 005°36'814.6
2018-Dec-11 23:59N 54°51' W 005°48'0 0.1
2018-Dec-11 23:23N 54°51' W 005°48'0 0.0
2018-Dec-11 22:59N 54°51' W 005°48'0 0.0
2018-Dec-11 22:26N 54°51' W 005°48'0 0.0
2018-Dec-11 22:00N 54°51' W 005°48'612.0
2018-Dec-11 21:30N 54°54' W 005°39'917.3
2018-Dec-11 21:00N 54°58' W 005°26'917.8
2018-Dec-11 20:30N 55°01' W 005°11'713.5
2018-Dec-11 20:00N 54°58' W 005°01'0 0.2
2018-Dec-11 19:30N 54°58' W 005°01'0 0.0
2018-Dec-11 19:00N 54°58' W 005°01'0 0.2
2018-Dec-11 18:30N 54°58' W 005°01'612.8
2018-Dec-11 18:01N 55°02' W 005°09'1019.3
2018-Dec-11 17:31N 54°57' W 005°24'1019.6
2018-Dec-11 17:01N 54°54' W 005°40'611.2
2018-Dec-11 16:30N 54°51' W 005°48'0 0.0
2018-Dec-11 15:59N 54°51' W 005°48'0 0.0
2018-Dec-11 15:30N 54°51' W 005°48'4 8.9
2018-Dec-11 15:00N 54°53' W 005°42'917.5
2018-Dec-11 14:30N 54°57' W 005°28'917.2
2018-Dec-11 14:00N 55°01' W 005°15'713.9
2018-Dec-11 13:30N 54°59' W 005°03'2 3.0
2018-Dec-11 12:58N 54°58' W 005°01'0 0.0
2018-Dec-11 12:28N 54°58' W 005°01'5 9.3
2018-Dec-11 11:54N 55°02' W 005°08'719.3
2018-Dec-11 11:31N 54°58' W 005°19'1020.5
2018-Dec-11 11:00N 54°54' W 005°36'815.6
2018-Dec-11 10:30N 54°51' W 005°48'0 0.1
2018-Dec-11 10:00N 54°51' W 005°48'0 0.0
2018-Dec-11 09:28N 54°51' W 005°48'4 9.1
2018-Dec-11 09:01N 54°53' W 005°42'917.7
2018-Dec-11 08:30N 54°57' W 005°28'918.3
2018-Dec-11 08:01N 55°01' W 005°14'713.5
2018-Dec-11 07:31N 54°59' W 005°03'1 2.7
2018-Dec-11 06:57N 54°58' W 005°01'0 0.0
2018-Dec-11 06:28N 54°58' W 005°01'0 0.2
2018-Dec-11 06:00N 54°58' W 005°01'611.3
2018-Dec-11 05:30N 55°02' W 005°08'917.5
2018-Dec-11 05:00N 54°58' W 005°21'1019.5
2018-Dec-11 04:30N 54°54' W 005°37'714.2
2018-Dec-11 04:00N 54°51' W 005°48'0 0.1
2018-Dec-11 03:30N 54°51' W 005°48'0 0.0
2018-Dec-11 03:00N 54°51' W 005°48'0 0.0
2018-Dec-11 02:30N 54°51' W 005°48'0 0.0
2018-Dec-11 02:00N 54°51' W 005°48'612.8
2018-Dec-11 01:30N 54°54' W 005°38'917.9
2018-Dec-11 01:00N 54°58' W 005°24'918.3
2018-Dec-11 00:30N 55°01' W 005°10'612.4
2018-Dec-11 00:00N 54°58' W 005°01'0 0.0
2018-Dec-10 23:30N 54°58' W 005°01'0 0.0
2018-Dec-10 23:00N 54°58' W 005°01'0 0.0
2018-Dec-10 22:30N 54°58' W 005°01'5 8.0
2018-Dec-10 21:49N 55°02' W 005°08'618.6
2018-Dec-10 21:30N 54°59' W 005°17'1020.0
2018-Dec-10 21:00N 54°55' W 005°33'918.1
2018-Dec-10 20:29N 54°51' W 005°48'0 0.3
2018-Dec-10 20:00N 54°51' W 005°48'0 0.0
2018-Dec-10 19:27N 54°51' W 005°48'0 0.0
2018-Dec-10 18:57N 54°51' W 005°48'0 0.0
2018-Dec-10 18:30N 54°51' W 005°48'4 7.7
2018-Dec-10 18:01N 54°53' W 005°43'918.1
2018-Dec-10 17:31N 54°57' W 005°29'917.9
2018-Dec-10 17:01N 55°01' W 005°14'714.4
2018-Dec-10 16:30N 54°59' W 005°02'1 2.1
2018-Dec-10 16:00N 54°58' W 005°01'0 0.0
2018-Dec-10 15:30N 54°58' W 005°01'5 9.5
2018-Dec-10 14:58N 55°02' W 005°07'920.6
2018-Dec-10 14:30N 54°58' W 005°22'1020.0
2018-Dec-10 14:00N 54°54' W 005°38'713.0
2018-Dec-10 13:30N 54°51' W 005°48'0 0.0
2018-Dec-10 13:00N 54°51' W 005°48'0 0.0
2018-Dec-10 12:30N 54°51' W 005°48'4 7.4
2018-Dec-10 12:00N 54°53' W 005°43'918.0
2018-Dec-10 11:31N 54°57' W 005°29'918.0
2018-Dec-10 11:01N 55°01' W 005°14'714.1
2018-Dec-10 10:31N 54°59' W 005°03'1 2.9
2018-Dec-10 09:59N 54°58' W 005°01'0 0.0
2018-Dec-10 09:31N 54°58' W 005°01'510.5
2018-Dec-10 08:59N 55°02' W 005°08'919.0
2018-Dec-10 08:31N 54°57' W 005°22'1020.4
2018-Dec-10 08:01N 54°53' W 005°38'612.2
2018-Dec-10 07:30N 54°51' W 005°48'0 0.0
2018-Dec-10 07:00N 54°51' W 005°48'0 0.0
2018-Dec-10 06:30N 54°51' W 005°48'0 0.0
2018-Dec-10 06:00N 54°51' W 005°48'611.2
2018-Dec-10 05:30N 54°54' W 005°40'918.3
2018-Dec-10 05:00N 54°58' W 005°26'918.0
2018-Dec-10 04:30N 55°01' W 005°11'612.2
2018-Dec-10 04:00N 54°58' W 005°02'1 1.6
2018-Dec-10 03:30N 54°58' W 005°01'0 0.0
2018-Dec-10 02:29N 54°58' W 005°01'0 0.0
2018-Dec-10 02:00N 54°58' W 005°01'6 8.8
2018-Dec-10 01:22N 55°02' W 005°08'718.7
2018-Dec-10 01:00N 54°59' W 005°19'918.4
2018-Dec-10 00:30N 54°55' W 005°33'917.9
2018-Dec-10 00:00N 54°51' W 005°48'1 1.2
2018-Dec-09 23:30N 54°51' W 005°48'0 0.0
2018-Dec-09 23:00N 54°51' W 005°48'0 0.0
2018-Dec-09 22:30N 54°51' W 005°48'0 0.0
2018-Dec-09 22:00N 54°51' W 005°48'4 8.1
2018-Dec-09 21:30N 54°53' W 005°42'816.7
2018-Dec-09 21:00N 54°57' W 005°29'816.3
2018-Dec-09 20:31N 54°60' W 005°16'713.7
2018-Dec-09 19:59N 54°59' W 005°03'2 3.3
2018-Dec-09 19:19N 54°58' W 005°01'0 0.0
2018-Dec-09 18:58N 54°58' W 005°01'0 0.0
2018-Dec-09 18:31N 54°58' W 005°01'5 9.9
2018-Dec-09 17:58N 55°02' W 005°07'817.3
2018-Dec-09 17:30N 54°58' W 005°20'917.8
2018-Dec-09 17:00N 54°55' W 005°34'816.9
2018-Dec-09 16:30N 54°51' W 005°48'0 0.6
2018-Dec-09 15:59N 54°51' W 005°48'0 0.0
2018-Dec-09 15:27N 54°51' W 005°48'4 9.5
2018-Dec-09 15:00N 54°53' W 005°42'917.7
2018-Dec-09 14:30N 54°57' W 005°28'917.3
2018-Dec-09 14:00N 55°01' W 005°14'713.8
2018-Dec-09 13:30N 54°59' W 005°03'2 3.0
2018-Dec-09 12:59N 54°58' W 005°01'0 0.0
2018-Dec-09 12:29N 54°58' W 005°01'0 0.0
2018-Dec-09 11:47N 54°58' W 005°01'0 0.0
2018-Dec-09 11:29N 54°58' W 005°01'0 0.0
2018-Dec-09 10:59N 54°58' W 005°01'0 0.0
2018-Dec-09 10:30N 54°58' W 005°01'0 0.0
2018-Dec-09 09:59N 54°58' W 005°01'0 0.0
2018-Dec-09 09:29N 54°58' W 005°01'510.4
2018-Dec-09 09:00N 55°02' W 005°07'816.5
2018-Dec-09 08:30N 54°58' W 005°20'917.9
2018-Dec-09 08:00N 54°54' W 005°34'917.2
2018-Dec-09 07:30N 54°51' W 005°48'0 0.4
2018-Dec-09 06:57N 54°51' W 005°48'0 0.0
2018-Dec-09 06:30N 54°51' W 005°48'0 0.0
2018-Dec-09 06:00N 54°51' W 005°48'0 0.0
2018-Dec-09 05:30N 54°51' W 005°48'0 0.0
2018-Dec-09 05:00N 54°51' W 005°48'0 0.0
2018-Dec-09 04:30N 54°51' W 005°48'0 0.0
2018-Dec-09 04:00N 54°51' W 005°48'0 0.0
2018-Dec-09 03:30N 54°51' W 005°48'0 0.0
2018-Dec-09 03:00N 54°51' W 005°48'0 0.0
2018-Dec-09 02:30N 54°51' W 005°48'0 0.0
2018-Dec-09 02:00N 54°51' W 005°48'0 0.0
2018-Dec-09 01:30N 54°51' W 005°48'0 0.0
2018-Dec-09 01:00N 54°51' W 005°48'0 0.0
2018-Dec-09 00:30N 54°51' W 005°48'0 0.0
2018-Dec-08 23:57N 54°51' W 005°48'0 0.0
2018-Dec-08 23:30N 54°51' W 005°48'0 0.0
2018-Dec-08 23:00N 54°51' W 005°48'0 0.0
2018-Dec-08 22:30N 54°51' W 005°48'0 0.0
2018-Dec-08 22:00N 54°51' W 005°48'510.1
2018-Dec-08 21:31N 54°54' W 005°41'917.9
2018-Dec-08 21:00N 54°59' W 005°27'917.1
2018-Dec-08 20:30N 55°01' W 005°13'713.4
2018-Dec-08 20:00N 54°59' W 005°02'1 2.1
2018-Dec-08 19:29N 54°58' W 005°01'0 0.0
2018-Dec-08 18:59N 54°58' W 005°01'0 0.0
2018-Dec-08 18:29N 54°58' W 005°01'611.2
2018-Dec-08 17:57N 55°02' W 005°09'919.9
2018-Dec-08 17:31N 54°57' W 005°23'1020.7
2018-Dec-08 17:00N 54°54' W 005°39'611.1
2018-Dec-08 16:30N 54°51' W 005°48'0 0.0
2018-Dec-08 15:57N 54°51' W 005°48'0 0.0
2018-Dec-08 15:30N 54°51' W 005°48'4 7.6
2018-Dec-08 15:00N 54°53' W 005°43'917.3
2018-Dec-08 14:30N 54°57' W 005°29'816.9
2018-Dec-08 14:01N 55°00' W 005°16'714.1
2018-Dec-08 13:30N 54°59' W 005°03'2 3.8
2018-Dec-08 12:55N 54°58' W 005°01'0 0.0
2018-Dec-08 12:29N 54°58' W 005°01'6 9.9
2018-Dec-08 11:55N 55°02' W 005°08'818.7
2018-Dec-08 11:30N 54°58' W 005°20'918.6
2018-Dec-08 11:00N 54°55' W 005°35'816.6
2018-Dec-08 10:30N 54°51' W 005°48'0 0.2
2018-Dec-08 09:58N 54°51' W 005°48'0 0.0
2018-Dec-08 09:30N 54°51' W 005°48'713.9
2018-Dec-08 09:01N 54°54' W 005°38'816.8
2018-Dec-08 08:31N 54°58' W 005°24'918.1
2018-Dec-08 08:00N 55°02' W 005°10'612.3
2018-Dec-08 07:29N 54°58' W 005°01'0 0.0
2018-Dec-08 07:00N 54°58' W 005°01'0 0.0
2018-Dec-08 06:30N 54°58' W 005°01'0 0.1
2018-Dec-08 05:59N 54°58' W 005°01'510.6
2018-Dec-08 05:30N 55°02' W 005°07'917.0
2018-Dec-08 05:00N 54°58' W 005°20'917.7
2018-Dec-08 04:30N 54°55' W 005°34'816.9
2018-Dec-08 04:00N 54°51' W 005°48'0 0.5
2018-Dec-08 03:29N 54°51' W 005°48'0 0.0
2018-Dec-08 02:59N 54°51' W 005°48'0 0.0
2018-Dec-08 02:27N 54°51' W 005°48'0 0.1
2018-Dec-08 02:00N 54°51' W 005°48'714.6
2018-Dec-08 01:30N 54°55' W 005°37'918.8
2018-Dec-08 01:00N 54°58' W 005°22'917.5
2018-Dec-08 00:30N 55°02' W 005°08'611.3
2018-Dec-08 00:00N 54°58' W 005°01'0 0.0
2018-Dec-07 23:31N 54°58' W 005°01'0 0.0
2018-Dec-07 23:00N 54°58' W 005°01'0 0.0
2018-Dec-07 22:30N 54°58' W 005°01'5 8.3
2018-Dec-07 21:53N 55°02' W 005°07'616.8
2018-Dec-07 21:30N 54°59' W 005°17'917.7
2018-Dec-07 21:00N 54°55' W 005°31'1018.9
2018-Dec-07 20:30N 54°52' W 005°46'2 2.9
2018-Dec-07 19:59N 54°51' W 005°48'0 0.0
2018-Dec-07 19:29N 54°51' W 005°48'0 0.0
2018-Dec-07 18:56N 54°51' W 005°48'0 0.0
2018-Dec-07 18:30N 54°51' W 005°48'5 9.9
2018-Dec-07 18:00N 54°54' W 005°41'919.0
2018-Dec-07 17:31N 54°58' W 005°26'1018.5
2018-Dec-07 16:58N 55°02' W 005°10'613.3
2018-Dec-07 16:30N 54°58' W 005°01'0 0.4
2018-Dec-07 15:57N 54°58' W 005°01'0 0.0
2018-Dec-07 15:30N 54°58' W 005°01'6 9.0
2018-Dec-07 14:53N 55°02' W 005°08'820.9
2018-Dec-07 14:31N 54°58' W 005°20'1020.5
2018-Dec-07 14:00N 54°54' W 005°37'713.1
2018-Dec-07 13:27N 54°51' W 005°48'0 0.0
2018-Dec-07 13:00N 54°51' W 005°48'0 0.0
2018-Dec-07 12:30N 54°51' W 005°48'715.0
2018-Dec-07 12:00N 54°55' W 005°37'1019.2
2018-Dec-07 11:30N 54°59' W 005°22'1115.7
2018-Dec-07 10:49N 54°59' W 005°03'2 7.3
2018-Dec-07 10:30N 54°58' W 005°01'0 0.0
2018-Dec-07 09:59N 54°58' W 005°01'0 0.0
2018-Dec-07 09:26N 54°58' W 005°01'610.5
2018-Dec-07 08:53N 55°02' W 005°09'617.0
2018-Dec-07 08:30N 54°58' W 005°18'918.0
2018-Dec-07 08:01N 54°55' W 005°32'918.5
2018-Dec-07 07:30N 54°51' W 005°48'1 1.2
2018-Dec-07 06:58N 54°51' W 005°48'0 0.0
2018-Dec-07 06:25N 54°51' W 005°48'0 0.1
2018-Dec-07 06:01N 54°51' W 005°48'713.6
2018-Dec-07 05:31N 54°54' W 005°38'918.8
2018-Dec-07 05:00N 54°59' W 005°23'918.5
2018-Dec-07 04:31N 55°02' W 005°08'611.0
2018-Dec-07 04:00N 54°58' W 005°01'0 0.0
2018-Dec-07 03:27N 54°58' W 005°01'0 0.0
2018-Dec-07 02:30N 54°58' W 005°01'0 0.0
2018-Dec-07 02:01N 54°58' W 005°01'5 9.3
2018-Dec-07 01:26N 55°02' W 005°07'920.9
2018-Dec-07 01:00N 54°58' W 005°21'1019.7
2018-Dec-07 00:30N 54°54' W 005°37'714.0
2018-Dec-07 00:01N 54°51' W 005°48'0 0.1
2018-Dec-06 23:30N 54°51' W 005°48'0 0.0
2018-Dec-06 23:00N 54°51' W 005°48'0 0.0
2018-Dec-06 22:30N 54°51' W 005°48'0 0.0
2018-Dec-06 22:00N 54°51' W 005°48'612.3
2018-Dec-06 21:30N 54°54' W 005°39'917.5
2018-Dec-06 21:00N 54°58' W 005°25'917.6
2018-Dec-06 20:30N 55°01' W 005°11'713.8
2018-Dec-06 20:00N 54°58' W 005°01'0 0.0
2018-Dec-06 19:26N 54°58' W 005°01'0 0.0
2018-Dec-06 18:56N 54°58' W 005°01'0 0.0
2018-Dec-06 18:30N 54°58' W 005°01'510.2
2018-Dec-06 18:00N 55°02' W 005°07'917.7
2018-Dec-06 17:30N 54°58' W 005°21'1019.1
2018-Dec-06 17:00N 54°54' W 005°36'815.0
2018-Dec-06 16:30N 54°51' W 005°48'0 0.1
2018-Dec-06 15:52N 54°51' W 005°48'0 0.0
2018-Dec-06 15:30N 54°51' W 005°48'611.6
2018-Dec-06 15:00N 54°54' W 005°39'918.3
2018-Dec-06 14:31N 54°58' W 005°25'917.6
2018-Dec-06 14:00N 55°01' W 005°11'713.5
2018-Dec-06 13:30N 54°58' W 005°01'0 0.0
2018-Dec-06 12:55N 54°58' W 005°01'0 0.0
2018-Dec-06 12:31N 54°58' W 005°01'612.9
2018-Dec-06 12:01N 55°01' W 005°10'1122.5
2018-Dec-06 11:30N 54°56' W 005°28'1121.7
2018-Dec-06 11:01N 54°52' W 005°45'2 4.0
2018-Dec-06 10:27N 54°51' W 005°48'0 0.0
2018-Dec-06 10:00N 54°51' W 005°48'5 9.6
2018-Dec-06 09:30N 54°54' W 005°41'1021.1
2018-Dec-06 09:01N 54°58' W 005°25'1216.6
2018-Dec-06 08:16N 54°59' W 005°03'2 7.1
2018-Dec-06 07:59N 54°58' W 005°01'0 0.0
2018-Dec-06 07:26N 54°58' W 005°01'0 0.0
2018-Dec-06 06:59N 54°58' W 005°01'0 0.0
2018-Dec-06 06:28N 54°58' W 005°01'0 0.3
2018-Dec-06 06:00N 54°58' W 005°01'612.3
2018-Dec-06 05:30N 55°02' W 005°09'1019.8
2018-Dec-06 05:00N 54°57' W 005°25'1020.3
2018-Dec-06 04:30N 54°53' W 005°41'4 8.9
2018-Dec-06 04:00N 54°51' W 005°48'0 0.0
2018-Dec-06 03:00N 54°51' W 005°48'0 0.0
2018-Dec-06 02:30N 54°51' W 005°48'0 0.0
2018-Dec-06 02:00N 54°51' W 005°48'611.0
2018-Dec-06 01:30N 54°54' W 005°40'1020.6
2018-Dec-06 01:00N 54°58' W 005°24'1019.6
2018-Dec-06 00:30N 55°02' W 005°07'611.2
2018-Dec-06 00:00N 54°58' W 005°01'0 0.0
2018-Dec-05 23:31N 54°58' W 005°01'0 0.0
2018-Dec-05 23:00N 54°58' W 005°01'0 0.0
2018-Dec-05 22:30N 54°58' W 005°01'5 7.7
2018-Dec-05 21:51N 55°02' W 005°07'618.2
2018-Dec-05 21:31N 54°59' W 005°16'918.6
2018-Dec-05 21:00N 54°55' W 005°31'918.7
2018-Dec-05 20:30N 54°52' W 005°46'2 2.7
2018-Dec-05 19:56N 54°51' W 005°48'0 0.0
2018-Dec-05 19:29N 54°51' W 005°48'0 0.0
2018-Dec-05 18:59N 54°51' W 005°48'0 0.0
2018-Dec-05 18:30N 54°51' W 005°48'816.4
2018-Dec-05 18:01N 54°55' W 005°35'1122.0
2018-Dec-05 17:30N 54°60' W 005°18'915.7
2018-Dec-05 16:57N 54°59' W 005°03'2 3.6
2018-Dec-05 16:26N 54°58' W 005°01'0 0.0
2018-Dec-05 15:53N 54°58' W 005°01'0 0.0
2018-Dec-05 15:30N 54°58' W 005°01'5 9.3
2018-Dec-05 14:58N 55°02' W 005°06'919.5
2018-Dec-05 14:30N 54°58' W 005°21'1020.0
2018-Dec-05 14:00N 54°54' W 005°37'714.2
2018-Dec-05 13:31N 54°51' W 005°48'0 0.1
2018-Dec-05 12:58N 54°51' W 005°48'0 0.0
2018-Dec-05 12:31N 54°51' W 005°48'4 8.2
2018-Dec-05 12:01N 54°53' W 005°42'1020.5
2018-Dec-05 11:30N 54°58' W 005°26'1019.7
2018-Dec-05 11:01N 55°02' W 005°10'712.9
2018-Dec-05 10:29N 54°58' W 005°01'0 0.0
2018-Dec-05 09:58N 54°58' W 005°01'0 0.0
2018-Dec-05 09:31N 54°58' W 005°01'610.0
2018-Dec-05 08:55N 55°01' W 005°09'717.2
2018-Dec-05 08:30N 54°57' W 005°19'917.7
2018-Dec-05 08:00N 54°55' W 005°34'917.0
2018-Dec-05 07:31N 54°52' W 005°47'1 1.6
2018-Dec-05 06:58N 54°51' W 005°48'0 0.0
2018-Dec-05 06:28N 54°51' W 005°48'0 0.0
2018-Dec-05 06:00N 54°51' W 005°48'4 8.7
2018-Dec-05 05:30N 54°53' W 005°42'1019.9
2018-Dec-05 05:01N 54°58' W 005°26'1020.4
2018-Dec-05 04:30N 55°02' W 005°09'612.4
2018-Dec-05 04:00N 54°58' W 005°01'0 0.0
2018-Dec-05 03:27N 54°58' W 005°01'0 0.0
2018-Dec-05 03:00N 54°58' W 005°01'0 0.0
2018-Dec-05 02:24N 54°58' W 005°01'0 0.1
2018-Dec-05 02:00N 54°58' W 005°01'611.5
2018-Dec-05 01:30N 55°02' W 005°09'918.5
2018-Dec-05 01:01N 54°57' W 005°23'917.6
2018-Dec-05 00:31N 54°54' W 005°37'714.0
2018-Dec-05 00:00N 54°51' W 005°48'0 0.1
2018-Dec-04 23:30N 54°51' W 005°48'0 0.0
2018-Dec-04 23:00N 54°51' W 005°48'0 0.0
2018-Dec-04 22:30N 54°51' W 005°48'0 0.0
2018-Dec-04 22:00N 54°51' W 005°48'510.9
2018-Dec-04 21:30N 54°54' W 005°40'918.1
2018-Dec-04 21:00N 54°59' W 005°27'917.5
2018-Dec-04 20:30N 55°01' W 005°12'714.5
2018-Dec-04 20:00N 54°58' W 005°01'0 0.6
2018-Dec-04 19:29N 54°58' W 005°01'0 0.0
2018-Dec-04 18:59N 54°58' W 005°01'0 0.0
2018-Dec-04 18:29N 54°58' W 005°01'5 9.3
2018-Dec-04 17:57N 55°02' W 005°07'716.7
2018-Dec-04 17:31N 54°59' W 005°19'1020.2
2018-Dec-04 17:01N 54°55' W 005°35'816.7
2018-Dec-04 16:30N 54°51' W 005°48'0 0.2
2018-Dec-04 15:59N 54°51' W 005°48'0 0.0
2018-Dec-04 15:30N 54°51' W 005°48'4 7.9
2018-Dec-04 15:00N 54°53' W 005°42'918.0
2018-Dec-04 14:31N 54°57' W 005°28'918.0
2018-Dec-04 14:00N 55°01' W 005°14'714.3
2018-Dec-04 13:30N 54°59' W 005°03'2 2.5
2018-Dec-04 12:53N 54°58' W 005°01'0 0.0
2018-Dec-04 12:30N 54°58' W 005°01'6 9.9
2018-Dec-04 11:54N 55°02' W 005°09'819.7
2018-Dec-04 11:30N 54°58' W 005°21'918.9
2018-Dec-04 11:00N 54°54' W 005°36'815.3
2018-Dec-04 10:30N 54°51' W 005°48'0 0.2
2018-Dec-04 10:00N 54°51' W 005°48'0 0.0
2018-Dec-04 09:28N 54°51' W 005°48'4 8.7
2018-Dec-04 09:00N 54°53' W 005°42'1020.0
2018-Dec-04 08:30N 54°58' W 005°27'1019.3
2018-Dec-04 08:00N 55°01' W 005°11'714.2
2018-Dec-04 07:30N 54°58' W 005°01'0 0.0
2018-Dec-04 06:59N 54°58' W 005°01'0 0.0
2018-Dec-04 06:26N 54°58' W 005°01'0 0.0
2018-Dec-04 06:00N 54°58' W 005°01'611.0
2018-Dec-04 05:30N 55°01' W 005°08'816.8
2018-Dec-04 05:01N 54°58' W 005°21'918.3
2018-Dec-04 04:30N 54°55' W 005°36'815.7
2018-Dec-04 04:00N 54°51' W 005°48'0 0.2
2018-Dec-04 03:30N 54°51' W 005°48'0 0.0
2018-Dec-04 03:01N 54°51' W 005°48'0 0.0
2018-Dec-04 02:30N 54°51' W 005°48'0 0.0
2018-Dec-04 02:00N 54°51' W 005°48'510.3
2018-Dec-04 01:31N 54°54' W 005°41'917.9
2018-Dec-04 01:00N 54°58' W 005°27'917.8
2018-Dec-04 00:31N 55°01' W 005°13'714.7
2018-Dec-04 00:00N 54°58' W 005°01'0 0.1
2018-Dec-03 23:29N 54°58' W 005°01'0 0.0
2018-Dec-03 22:59N 54°58' W 005°01'0 0.0
2018-Dec-03 22:29N 54°58' W 005°01'6 8.1
2018-Dec-03 21:48N 55°02' W 005°08'620.0
2018-Dec-03 21:30N 54°59' W 005°17'1020.0
2018-Dec-03 21:00N 54°54' W 005°33'918.3
2018-Dec-03 20:30N 54°51' W 005°48'1 1.0
2018-Dec-03 19:58N 54°51' W 005°48'0 0.0
2018-Dec-03 19:28N 54°51' W 005°48'0 0.0
2018-Dec-03 18:55N 54°51' W 005°48'0 0.0
2018-Dec-03 18:30N 54°51' W 005°48'510.2
2018-Dec-03 18:01N 54°54' W 005°41'1019.9
2018-Dec-03 17:30N 54°59' W 005°26'1316.6
2018-Dec-03 16:44N 54°59' W 005°03'2 8.5
2018-Dec-03 16:30N 54°58' W 005°01'0 0.0
2018-Dec-03 16:01N 54°58' W 005°01'0 0.2
2018-Dec-03 15:30N 54°58' W 005°01'612.9
2018-Dec-03 15:01N 55°01' W 005°10'1121.3
2018-Dec-03 14:30N 54°56' W 005°27'1121.9
2018-Dec-03 14:00N 54°52' W 005°44'3 5.1
2018-Dec-03 13:30N 54°51' W 005°48'0 0.0
2018-Dec-03 13:00N 54°51' W 005°48'0 0.0
2018-Dec-03 12:30N 54°51' W 005°48'3 6.7
2018-Dec-03 12:00N 54°53' W 005°43'917.7
2018-Dec-03 11:30N 54°57' W 005°29'917.8
2018-Dec-03 11:00N 55°00' W 005°15'714.2
2018-Dec-03 10:30N 54°59' W 005°03'2 3.6
2018-Dec-03 10:00N 54°58' W 005°01'0 0.0
2018-Dec-03 09:31N 54°58' W 005°01'5 9.7
2018-Dec-03 09:00N 55°02' W 005°06'917.7
2018-Dec-03 08:31N 54°58' W 005°20'917.7
2018-Dec-03 08:00N 54°55' W 005°34'816.8
2018-Dec-03 07:30N 54°51' W 005°48'0 0.3
2018-Dec-03 07:00N 54°51' W 005°48'0 0.0
2018-Dec-03 06:30N 54°51' W 005°48'0 0.0
2018-Dec-03 06:00N 54°51' W 005°48'4 8.5
2018-Dec-03 05:30N 54°53' W 005°42'917.0
2018-Dec-03 05:00N 54°57' W 005°29'917.3
2018-Dec-03 04:30N 55°00' W 005°15'714.0
2018-Dec-03 04:00N 54°59' W 005°03'2 3.0
2018-Dec-03 03:28N 54°58' W 005°01'0 0.0
2018-Dec-03 02:52N 54°58' W 005°01'0 0.0
2018-Dec-03 02:25N 54°58' W 005°01'0 0.2
2018-Dec-03 02:00N 54°58' W 005°01'612.1
2018-Dec-03 01:30N 55°01' W 005°10'918.5
2018-Dec-03 01:01N 54°57' W 005°24'918.8
2018-Dec-03 00:30N 54°54' W 005°39'611.6
2018-Dec-03 00:00N 54°51' W 005°48'0 0.0
2018-Dec-02 23:30N 54°51' W 005°48'0 0.0
2018-Dec-02 23:00N 54°51' W 005°48'0 0.0
2018-Dec-02 22:30N 54°51' W 005°48'0 0.0
2018-Dec-02 22:00N 54°51' W 005°48'4 8.4
2018-Dec-02 21:30N 54°53' W 005°42'917.5
2018-Dec-02 21:00N 54°57' W 005°28'816.9
2018-Dec-02 20:30N 55°01' W 005°15'714.4
2018-Dec-02 20:00N 54°59' W 005°03'1 2.5
2018-Dec-02 19:26N 54°58' W 005°01'0 0.0
2018-Dec-02 18:56N 54°58' W 005°01'0 0.0
2018-Dec-02 18:31N 54°58' W 005°01'510.0
2018-Dec-02 18:00N 55°02' W 005°07'1019.3
2018-Dec-02 17:30N 54°57' W 005°22'1020.5
2018-Dec-02 17:00N 54°54' W 005°39'612.2
2018-Dec-02 16:30N 54°51' W 005°48'0 0.0
2018-Dec-02 15:57N 54°51' W 005°48'0 0.0
2018-Dec-02 15:30N 54°51' W 005°48'4 8.0
2018-Dec-02 15:00N 54°53' W 005°42'815.3
2018-Dec-02 14:30N 54°57' W 005°31'917.3
2018-Dec-02 14:00N 55°00' W 005°17'  

Dump ship's entire track history